TimeEDT,TemperatureF,Dew PointF,Humidity,Sea Level PressureIn,VisibilityMPH,Wind Direction,Wind SpeedMPH,Gust SpeedMPH,PrecipitationIn,Events,Conditions,WindDirDegrees,DateUTC
12:15 AM,57.2,42.8,59,29.86,10.0,West,9.2,-,N/A,,Clear,270,2012-10-30 04:15:00
12:35 AM,55.4,44.6,67,29.86,10.0,West,9.2,-,N/A,,Clear,260,2012-10-30 04:35:00
12:55 AM,55.4,44.6,67,29.86,10.0,West,9.2,-,N/A,,Clear,260,2012-10-30 04:55:00
1:15 AM,55.4,44.6,67,29.86,10.0,West,6.9,-,N/A,,Clear,270,2012-10-30 05:15:00
1:35 AM,55.4,44.6,67,29.86,10.0,West,6.9,-,N/A,,Clear,280,2012-10-30 05:35:00
1:55 AM,55.4,44.6,67,29.86,10.0,WNW,6.9,-,N/A,,Clear,290,2012-10-30 05:55:00
2:15 AM,55.4,44.6,67,29.85,10.0,West,8.1,-,N/A,,Clear,280,2012-10-30 06:15:00
2:35 AM,55.4,44.6,67,29.85,10.0,WNW,6.9,-,N/A,,Clear,290,2012-10-30 06:35:00
2:55 AM,55.4,44.6,67,29.84,10.0,WNW,8.1,-,N/A,,Clear,290,2012-10-30 06:55:00
3:55 AM,53.6,41.0,62,29.85,10.0,WNW,8.1,-,N/A,,Clear,290,2012-10-30 07:55:00
4:15 AM,53.6,37.4,54,29.85,10.0,WNW,10.4,-,N/A,,Clear,290,2012-10-30 08:15:00
4:55 AM,53.6,35.6,51,29.87,10.0,WNW,9.2,-,N/A,,Clear,300,2012-10-30 08:55:00
5:15 AM,53.6,35.6,51,29.87,10.0,WNW,9.2,-,N/A,,Clear,300,2012-10-30 09:15:00
5:35 AM,53.6,35.6,51,29.88,10.0,WNW,9.2,16.1,N/A,,Clear,300,2012-10-30 09:35:00
5:55 AM,53.6,35.6,51,29.88,10.0,WNW,9.2,16.1,N/A,,Clear,300,2012-10-30 09:55:00
6:15 AM,51.8,35.6,54,29.89,10.0,WNW,9.2,-,N/A,,Clear,300,2012-10-30 10:15:00
6:47 AM,53.6,35.6,51,29.90,10.0,WNW,9.2,-,N/A,,Clear,300,2012-10-30 10:47:00
7:47 AM,50.0,33.8,54,29.92,10.0,WNW,8.1,-,N/A,,Clear,290,2012-10-30 11:47:00
8:47 AM,53.6,32.0,44,29.94,10.0,WNW,9.2,-,N/A,,Clear,290,2012-10-30 12:47:00
9:47 AM,57.2,32.0,38,29.95,10.0,NW,11.5,18.4,N/A,,Clear,320,2012-10-30 13:47:00
10:47 AM,60.8,35.6,39,29.96,10.0,NW,13.8,23.0,N/A,,Clear,320,2012-10-30 14:47:00
11:47 AM,64.4,37.4,37,29.95,10.0,WNW,18.4,26.5,N/A,,Clear,300,2012-10-30 15:47:00
12:47 PM,66.2,37.4,35,29.92,10.0,West,16.1,-,N/A,,Clear,280,2012-10-30 16:47:00
1:47 PM,68.0,35.6,30,29.90,10.0,West,18.4,-,N/A,,Partly Cloudy,270,2012-10-30 17:47:00
2:47 PM,71.6,37.4,29,29.87,10.0,West,17.3,-,N/A,,Partly Cloudy,270,2012-10-30 18:47:00
3:47 PM,71.6,33.8,25,29.86,10.0,West,21.9,-,N/A,,Clear,270,2012-10-30 19:47:00
4:47 PM,71.6,32.0,23,29.87,10.0,West,19.6,-,N/A,,Clear,270,2012-10-30 20:47:00
5:47 PM,68.0,32.0,26,29.88,10.0,West,19.6,-,N/A,,Clear,270,2012-10-30 21:47:00
6:47 PM,66.2,39.2,37,29.89,10.0,West,11.5,-,N/A,,Clear,260,2012-10-30 22:47:00
8:15 PM,60.8,41.0,48,29.94,10.0,West,9.2,-,N/A,,Clear,270,2012-10-31 00:15:00
8:35 PM,60.8,41.0,48,29.94,10.0,West,9.2,-,N/A,,Clear,270,2012-10-31 00:35:00
8:55 PM,60.8,42.8,52,29.95,10.0,West,10.4,-,N/A,,Clear,270,2012-10-31 00:55:00
9:15 PM,59.0,42.8,55,29.97,10.0,West,9.2,-,N/A,,Clear,270,2012-10-31 01:15:00
9:35 PM,59.0,44.6,59,29.97,10.0,West,6.9,-,N/A,,Clear,280,2012-10-31 01:35:00
9:55 PM,59.0,44.6,59,29.98,10.0,West,6.9,-,N/A,,Clear,270,2012-10-31 01:55:00
10:15 PM,59.0,44.6,59,29.99,10.0,West,6.9,-,N/A,,Clear,270,2012-10-31 02:15:00
10:35 PM,57.2,44.6,63,29.99,10.0,West,6.9,-,N/A,,Clear,270,2012-10-31 02:35:00
10:55 PM,57.2,46.4,67,29.99,10.0,West,5.8,-,N/A,,Clear,270,2012-10-31 02:55:00
11:15 PM,55.4,46.4,72,29.99,10.0,WSW,5.8,-,N/A,,Clear,250,2012-10-31 03:15:00
11:35 PM,55.4,46.4,72,29.99,10.0,West,5.8,-,N/A,,Clear,260,2012-10-31 03:35:00
11:55 PM,55.4,46.4,72,29.99,10.0,West,4.6,-,N/A,,Clear,260,2012-10-31 03:55:00